Time;durP1;ratioP1;P1;durP2;ratioP2;P2;SDS_P1;SDS_P2;PMS_P1;PMS_P2;Temp;Humidity;BMP_temperature;BMP_pressure;BME280_temperature;BME280_humidity;BME280_pressure;Samples;Min_cycle;Max_cycle;Signal;HPM_P1;HPM_P2
2023/03/13 00:00:58;;;;;;;;;;;8.80;99.90;;;;;;5047744;28;19994;-51
2023/03/13 00:03:25;;;;;;;;;;;8.80;99.90;;;;;;5065490;28;19995;-51
2023/03/13 00:05:55;;;;;;;;;;;8.70;99.90;;;;;;5054274;28;19964;-51
2023/03/13 00:08:23;;;;;;;;;;;8.80;99.90;;;;;;5074183;28;19966;-54
2023/03/13 00:10:49;;;;;;;;;;;8.80;99.90;;;;;;5056552;28;20473;-53
2023/03/13 00:13:16;;;;;;;;;;;8.80;99.90;;;;;;5057331;28;20453;-49
2023/03/13 00:15:42;;;;;;;;;;;8.70;99.90;;;;;;5074845;28;20000;-50
2023/03/13 00:18:09;;;;;;;;;;;8.70;99.90;;;;;;5073848;28;20044;-53
2023/03/13 00:20:36;;;;;;;;;;;8.70;99.90;;;;;;5055944;28;20200;-53
2023/03/13 00:23:02;;;;;;;;;;;8.70;99.90;;;;;;5075906;28;20592;-51
2023/03/13 00:25:30;;;;;;;;;;;8.70;99.90;;;;;;5074472;28;20015;-54
2023/03/13 00:27:57;;;;;;;;;;;8.70;99.90;;;;;;5073687;28;19987;-53
2023/03/13 00:30:23;;;;;;;;;;;8.70;99.90;;;;;;5074425;28;19970;-50
2023/03/13 00:32:50;;;;;;;;;;;8.70;99.90;;;;;;5056807;28;20009;-49
2023/03/13 00:35:17;;;;;;;;;;;8.70;99.90;;;;;;5057772;28;19992;-52
2023/03/13 00:37:43;;;;;;;;;;;8.70;99.90;;;;;;5057308;28;19991;-48
2023/03/13 00:40:10;;;;;;;;;;;8.70;99.90;;;;;;5074462;28;20321;-48
2023/03/13 00:42:38;;;;;;;;;;;8.70;99.90;;;;;;5057331;28;20398;-49
2023/03/13 00:45:06;;;;;;;;;;;8.70;99.90;;;;;;5057776;28;20383;-50
2023/03/13 00:47:32;;;;;;;;;;;8.70;99.90;;;;;;5056910;28;19944;-44
2023/03/13 00:49:59;;;;;;;;;;;8.70;99.90;;;;;;5056586;28;19970;-47
2023/03/13 00:52:27;;;;;;;;;;;8.60;99.90;;;;;;5052756;28;19985;-52
2023/03/13 00:54:53;;;;;;;;;;;8.70;99.90;;;;;;5055296;28;20310;-52
2023/03/13 00:57:20;;;;;;;;;;;8.60;99.90;;;;;;5055981;28;19977;-52
2023/03/13 00:59:48;;;;;;;;;;;8.60;99.90;;;;;;5073505;28;19967;-51
2023/03/13 01:02:14;;;;;;;;;;;8.70;99.90;;;;;;5073137;28;19977;-52
2023/03/13 01:04:41;;;;;;;;;;;8.70;99.90;;;;;;5055203;28;20000;-49
2023/03/13 01:07:08;;;;;;;;;;;8.60;99.90;;;;;;5073478;28;19997;-50
2023/03/13 01:09:34;;;;;;;;;;;8.60;99.90;;;;;;5073094;28;20362;-52
2023/03/13 01:12:01;;;;;;;;;;;8.60;99.90;;;;;;5055405;28;19983;-47
2023/03/13 01:14:28;;;;;;;;;;;8.60;99.90;;;;;;5063357;28;19948;-45
2023/03/13 01:16:55;;;;;;;;;;;8.60;99.90;;;;;;5073605;28;19996;-48
2023/03/13 01:19:22;;;;;;;;;;;8.70;99.90;;;;;;5073686;28;20018;-45
2023/03/13 01:21:49;;;;;;;;;;;8.60;99.90;;;;;;5056110;28;20283;-46
2023/03/13 01:24:18;;;;;;;;;;;8.60;99.90;;;;;;5072919;28;20066;-49
2023/03/13 01:26:44;;;;;;;;;;;8.70;99.90;;;;;;5074050;28;20288;-50
2023/03/13 01:29:11;;;;;;;;;;;8.70;99.90;;;;;;5073182;28;19992;-54
2023/03/13 01:31:37;;;;;;;;;;;8.70;99.90;;;;;;5073248;28;20318;-49
2023/03/13 01:34:05;;;;;;;;;;;8.70;99.90;;;;;;5056495;28;20524;-47
2023/03/13 01:36:32;;;;;;;;;;;8.70;99.90;;;;;;5046304;28;19947;-49
2023/03/13 01:38:59;;;;;;;;;;;8.70;99.90;;;;;;5073243;28;19948;-49
2023/03/13 01:41:26;;;;;;;;;;;8.70;99.90;;;;;;5055509;28;19992;-50
2023/03/13 01:43:54;;;;;;;;;;;8.70;99.90;;;;;;5073975;28;19948;-52
2023/03/13 01:46:20;;;;;;;;;;;8.70;99.90;;;;;;5056505;28;19986;-48
2023/03/13 01:48:49;;;;;;;;;;;8.70;99.90;;;;;;5056415;28;19988;-49
2023/03/13 01:51:18;;;;;;;;;;;8.80;99.90;;;;;;5072816;28;19945;-47
2023/03/13 01:53:46;;;;;;;;;;;8.70;99.90;;;;;;5052362;28;19995;-49
2023/03/13 01:56:14;;;;;;;;;;;8.70;99.90;;;;;;5068012;28;19981;-49
2023/03/13 01:58:40;;;;;;;;;;;8.80;99.90;;;;;;5059104;28;19997;-45
2023/03/13 02:01:07;;;;;;;;;;;8.80;99.90;;;;;;5054528;28;19995;-46
2023/03/13 02:03:34;;;;;;;;;;;8.80;99.90;;;;;;5072145;28;20277;-52
2023/03/13 02:06:00;;;;;;;;;;;8.80;99.90;;;;;;5067439;28;20310;-52
2023/03/13 02:08:31;;;;;;;;;;;8.80;99.90;;;;;;5069896;28;19958;-47
2023/03/13 02:10:58;;;;;;;;;;;8.80;99.90;;;;;;5055547;28;20013;-49
2023/03/13 02:13:25;;;;;;;;;;;8.80;99.90;;;;;;5072935;28;20326;-52
2023/03/13 02:15:52;;;;;;;;;;;8.80;99.90;;;;;;5073421;28;19995;-50
2023/03/13 02:18:18;;;;;;;;;;;8.80;99.90;;;;;;5072624;28;20399;-51
2023/03/13 02:20:45;;;;;;;;;;;8.80;99.90;;;;;;5073508;28;19942;-43
2023/03/13 02:23:14;;;;;;;;;;;8.80;99.90;;;;;;5058629;28;20362;-53
2023/03/13 02:25:43;;;;;;;;;;;8.80;99.90;;;;;;5072489;28;19940;-49
2023/03/13 02:28:11;;;;;;;;;;;8.70;99.90;;;;;;5072046;28;20005;-55
2023/03/13 02:30:37;;;;;;;;;;;8.70;99.90;;;;;;5071424;28;20022;-48
2023/03/13 02:33:04;;;;;;;;;;;8.70;99.90;;;;;;5054617;28;19949;-53
2023/03/13 02:35:30;;;;;;;;;;;8.70;99.90;;;;;;5072005;28;19979;-48
2023/03/13 02:37:57;;;;;;;;;;;8.70;99.90;;;;;;5054762;28;20388;-49
2023/03/13 02:40:25;;;;;;;;;;;8.70;99.90;;;;;;5055238;28;19992;-46
2023/03/13 02:42:53;;;;;;;;;;;8.80;99.90;;;;;;5074068;28;19948;-46
2023/03/13 02:45:20;;;;;;;;;;;8.80;99.90;;;;;;5073175;28;20306;-48
2023/03/13 02:47:46;;;;;;;;;;;8.80;99.90;;;;;;5053881;28;20027;-45
2023/03/13 02:50:13;;;;;;;;;;;8.80;99.90;;;;;;5072506;28;19953;-45
2023/03/13 02:52:40;;;;;;;;;;;8.80;99.90;;;;;;5071858;28;19948;-47
2023/03/13 02:55:08;;;;;;;;;;;8.80;99.90;;;;;;5071995;28;19945;-45
2023/03/13 02:57:34;;;;;;;;;;;8.80;99.90;;;;;;5054218;28;19987;-50
2023/03/13 03:00:02;;;;;;;;;;;8.80;99.90;;;;;;5071141;28;19980;-47
2023/03/13 03:02:29;;;;;;;;;;;8.90;99.90;;;;;;5042965;28;19951;-48
2023/03/13 03:04:55;;;;;;;;;;;8.90;99.90;;;;;;5041801;28;19991;-47
2023/03/13 03:07:22;;;;;;;;;;;8.90;99.90;;;;;;5047484;28;19985;-51
2023/03/13 03:09:49;;;;;;;;;;;8.90;99.90;;;;;;5048891;28;20053;-48
2023/03/13 03:12:15;;;;;;;;;;;9.00;99.90;;;;;;5071509;28;20339;-52
2023/03/13 03:14:42;;;;;;;;;;;9.00;99.90;;;;;;5066800;28;19944;-44
2023/03/13 03:17:10;;;;;;;;;;;9.00;99.90;;;;;;5072220;28;19950;-51
2023/03/13 03:19:37;;;;;;;;;;;9.10;99.90;;;;;;5068184;28;19994;-51
2023/03/13 03:22:03;;;;;;;;;;;9.10;99.90;;;;;;5068046;28;20001;-45
2023/03/13 03:24:30;;;;;;;;;;;9.10;99.90;;;;;;5068239;28;19990;-48
2023/03/13 03:26:56;;;;;;;;;;;9.20;99.90;;;;;;5053572;28;20025;-49
2023/03/13 03:29:23;;;;;;;;;;;9.20;99.90;;;;;;5051412;28;20475;-47
2023/03/13 03:31:50;;;;;;;;;;;9.20;99.90;;;;;;5053937;28;20437;-46
2023/03/13 03:34:18;;;;;;;;;;;9.30;99.90;;;;;;5053404;28;20044;-48
2023/03/13 03:36:44;;;;;;;;;;;9.30;99.90;;;;;;5063897;28;19986;-46
2023/03/13 03:39:11;;;;;;;;;;;9.30;99.90;;;;;;5054290;28;19995;-52
2023/03/13 03:41:38;;;;;;;;;;;9.30;99.90;;;;;;5070394;28;19944;-47
2023/03/13 03:44:04;;;;;;;;;;;9.30;99.90;;;;;;5054426;28;19947;-48
2023/03/13 03:46:31;;;;;;;;;;;9.40;99.90;;;;;;5070044;28;20024;-46
2023/03/13 03:48:58;;;;;;;;;;;9.40;99.90;;;;;;5039393;28;21631;-46
2023/03/13 03:51:26;;;;;;;;;;;9.40;99.90;;;;;;5070576;28;20420;-48
2023/03/13 03:53:53;;;;;;;;;;;9.40;99.90;;;;;;5057536;28;20042;-50
2023/03/13 03:56:20;;;;;;;;;;;9.50;99.90;;;;;;5051124;28;19949;-51
2023/03/13 03:58:46;;;;;;;;;;;9.50;99.90;;;;;;5052319;28;19984;-52
2023/03/13 04:01:13;;;;;;;;;;;9.50;99.90;;;;;;5053483;28;19948;-51
2023/03/13 04:03:40;;;;;;;;;;;9.60;99.90;;;;;;5052635;28;19953;-50
2023/03/13 04:06:06;;;;;;;;;;;9.60;99.90;;;;;;5070060;28;19952;-47
2023/03/13 04:08:34;;;;;;;;;;;9.60;99.90;;;;;;5070729;28;19944;-50
2023/03/13 04:11:01;;;;;;;;;;;9.70;99.90;;;;;;5050405;28;19979;-46
2023/03/13 04:13:28;;;;;;;;;;;9.70;99.90;;;;;;5053289;28;19944;-48
2023/03/13 04:15:54;;;;;;;;;;;9.80;99.90;;;;;;5056803;28;20028;-49
2023/03/13 04:18:21;;;;;;;;;;;9.90;99.90;;;;;;5059874;28;19975;-51
2023/03/13 04:20:48;;;;;;;;;;;9.90;99.90;;;;;;5049176;28;20032;-49
2023/03/13 04:23:14;;;;;;;;;;;10.00;99.90;;;;;;5068251;28;20346;-49
2023/03/13 04:25:42;;;;;;;;;;;10.00;99.90;;;;;;5066339;28;20359;-50
2023/03/13 04:28:09;;;;;;;;;;;10.00;99.90;;;;;;5066585;28;19943;-51
2023/03/13 04:30:35;;;;;;;;;;;10.00;99.90;;;;;;5053870;28;20401;-49
2023/03/13 04:33:02;;;;;;;;;;;10.10;99.90;;;;;;5052568;28;19985;-47
2023/03/13 04:35:29;;;;;;;;;;;10.20;99.90;;;;;;5051869;28;19984;-50
2023/03/13 04:37:55;;;;;;;;;;;10.20;99.90;;;;;;5060700;28;20443;-45
2023/03/13 04:40:22;;;;;;;;;;;10.20;99.90;;;;;;5052898;28;21081;-49
2023/03/13 04:42:50;;;;;;;;;;;10.30;99.90;;;;;;5060864;28;19950;-52
2023/03/13 04:45:17;;;;;;;;;;;10.30;99.90;;;;;;5068551;28;19999;-50
2023/03/13 04:47:43;;;;;;;;;;;10.30;99.90;;;;;;5049847;28;20075;-47
2023/03/13 04:50:10;;;;;;;;;;;10.40;99.90;;;;;;5071883;28;20017;-48
2023/03/13 04:52:37;;;;;;;;;;;10.50;99.90;;;;;;5070205;28;19985;-43
2023/03/13 04:55:04;;;;;;;;;;;10.40;99.90;;;;;;5074632;28;19995;-49
2023/03/13 04:57:30;;;;;;;;;;;10.50;99.90;;;;;;5074279;28;19966;-52
2023/03/13 04:59:58;;;;;;;;;;;10.50;99.90;;;;;;5074209;28;20331;-49
2023/03/13 05:02:25;;;;;;;;;;;10.50;99.90;;;;;;5062849;28;19984;-50
2023/03/13 05:04:52;;;;;;;;;;;10.60;99.90;;;;;;5059080;28;20434;-47
2023/03/13 05:07:19;;;;;;;;;;;10.60;99.90;;;;;;5075301;28;19983;-48
2023/03/13 05:09:45;;;;;;;;;;;10.60;99.90;;;;;;5056332;28;20014;-48
2023/03/13 05:12:12;;;;;;;;;;;10.60;99.90;;;;;;5073452;28;20421;-51
2023/03/13 05:14:38;;;;;;;;;;;10.70;99.90;;;;;;5041821;28;19989;-52
2023/03/13 05:17:06;;;;;;;;;;;10.70;99.90;;;;;;5057069;28;19970;-52
2023/03/13 05:19:33;;;;;;;;;;;10.80;99.90;;;;;;5043647;28;19984;-50
2023/03/13 05:22:00;;;;;;;;;;;10.90;99.90;;;;;;5072282;28;20015;-50
2023/03/13 05:24:26;;;;;;;;;;;10.90;99.90;;;;;;5064330;28;19984;-50
2023/03/13 05:26:53;;;;;;;;;;;10.90;99.90;;;;;;5066222;28;19998;-49
2023/03/13 05:29:20;;;;;;;;;;;10.90;99.90;;;;;;5071610;28;20348;-49
2023/03/13 05:31:46;;;;;;;;;;;11.00;99.90;;;;;;5065418;28;19944;-51
2023/03/13 05:34:14;;;;;;;;;;;11.00;99.90;;;;;;5079827;28;19981;-49
2023/03/13 05:36:41;;;;;;;;;;;11.10;99.90;;;;;;5054076;28;20017;-45
2023/03/13 05:39:07;;;;;;;;;;;11.10;99.90;;;;;;5052783;28;19974;-48
2023/03/13 05:41:34;;;;;;;;;;;11.10;99.90;;;;;;5052518;28;19996;-48
2023/03/13 05:44:01;;;;;;;;;;;11.10;99.90;;;;;;5062864;28;20306;-49
2023/03/13 05:46:27;;;;;;;;;;;11.20;99.90;;;;;;5081660;28;20379;-48
2023/03/13 05:48:54;;;;;;;;;;;11.20;99.90;;;;;;5060602;28;20005;-48
2023/03/13 05:51:22;;;;;;;;;;;11.20;99.90;;;;;;5056979;28;19947;-49
2023/03/13 05:53:48;;;;;;;;;;;11.20;99.90;;;;;;5072692;28;19988;-51
2023/03/13 05:56:15;;;;;;;;;;;11.20;99.90;;;;;;5064256;28;20020;-48
2023/03/13 05:58:42;;;;;;;;;;;11.20;99.90;;;;;;5073438;28;20405;-50
2023/03/13 06:01:09;;;;;;;;;;;11.20;99.90;;;;;;5065603;28;19992;-52
2023/03/13 06:03:35;;;;;;;;;;;11.30;99.90;;;;;;5049111;28;19979;-47
2023/03/13 06:06:02;;;;;;;;;;;11.30;99.90;;;;;;5066269;28;19979;-49
2023/03/13 06:08:31;;;;;;;;;;;11.30;99.90;;;;;;5071952;28;19975;-44
2023/03/13 06:10:58;;;;;;;;;;;11.30;99.90;;;;;;5069945;28;19942;-50
2023/03/13 06:13:25;;;;;;;;;;;11.30;99.90;;;;;;5083877;28;19987;-52
2023/03/13 06:15:52;;;;;;;;;;;11.40;99.90;;;;;;5043825;28;20015;-49
2023/03/13 06:18:19;;;;;;;;;;;11.40;99.90;;;;;;5049975;28;20118;-46
2023/03/13 06:20:45;;;;;;;;;;;11.40;99.90;;;;;;5071451;28;19948;-48
2023/03/13 06:23:12;;;;;;;;;;;11.50;99.90;;;;;;5076049;28;19950;-49
2023/03/13 06:25:40;;;;;;;;;;;11.40;99.90;;;;;;5093642;28;19987;-51
2023/03/13 06:28:07;;;;;;;;;;;11.50;99.90;;;;;;5082336;28;19937;-48
2023/03/13 06:30:33;;;;;;;;;;;11.50;99.90;;;;;;5055973;28;19949;-53
2023/03/13 06:33:00;;;;;;;;;;;11.50;99.90;;;;;;5071594;28;19990;-49
2023/03/13 06:35:26;;;;;;;;;;;11.50;99.90;;;;;;5048550;28;19968;-50
2023/03/13 06:37:53;;;;;;;;;;;11.50;99.90;;;;;;5072585;28;19947;-44
2023/03/13 06:40:20;;;;;;;;;;;11.50;99.90;;;;;;5054631;28;19945;-50
2023/03/13 06:42:48;;;;;;;;;;;11.60;99.90;;;;;;5072122;28;19997;-49
2023/03/13 06:45:15;;;;;;;;;;;11.60;99.90;;;;;;5069748;28;19976;-50
2023/03/13 06:47:41;;;;;;;;;;;11.60;99.90;;;;;;5066023;28;19991;-43
2023/03/13 06:50:08;;;;;;;;;;;11.60;99.90;;;;;;5053256;28;20006;-49
2023/03/13 06:52:36;;;;;;;;;;;11.60;99.90;;;;;;5058880;28;19994;-48
2023/03/13 06:55:03;;;;;;;;;;;11.60;99.90;;;;;;5054557;28;19948;-51
2023/03/13 06:57:30;;;;;;;;;;;11.70;99.90;;;;;;5071576;28;19997;-51
2023/03/13 06:59:58;;;;;;;;;;;11.70;99.90;;;;;;5074030;28;20029;-52
2023/03/13 07:02:24;;;;;;;;;;;11.70;99.90;;;;;;5074173;28;19956;-45
2023/03/13 07:04:51;;;;;;;;;;;11.70;99.90;;;;;;5066803;28;20005;-48
2023/03/13 07:07:18;;;;;;;;;;;11.70;99.90;;;;;;5091038;28;20017;-49
2023/03/13 07:09:44;;;;;;;;;;;11.70;99.90;;;;;;5089808;28;19960;-51
2023/03/13 07:12:11;;;;;;;;;;;11.70;99.90;;;;;;5073704;28;19985;-47
2023/03/13 07:14:37;;;;;;;;;;;11.70;99.90;;;;;;5090981;28;20030;-51
2023/03/13 07:17:05;;;;;;;;;;;11.70;99.90;;;;;;5052603;28;20410;-43
2023/03/13 07:19:32;;;;;;;;;;;11.70;99.90;;;;;;5053731;28;19965;-48
2023/03/13 07:21:59;;;;;;;;;;;11.70;99.90;;;;;;5071366;28;20413;-49
2023/03/13 07:24:25;;;;;;;;;;;11.70;99.90;;;;;;5053980;28;20456;-50
2023/03/13 07:26:52;;;;;;;;;;;11.70;99.90;;;;;;5053622;28;19984;-43
2023/03/13 07:29:19;;;;;;;;;;;11.70;99.90;;;;;;5071217;28;19936;-47
2023/03/13 07:31:45;;;;;;;;;;;11.70;99.90;;;;;;5053721;28;20453;-49
2023/03/13 07:34:13;;;;;;;;;;;11.70;99.90;;;;;;5070737;28;20198;-45
2023/03/13 07:36:40;;;;;;;;;;;11.90;99.90;;;;;;5051882;28;19945;-44
2023/03/13 07:39:07;;;;;;;;;;;11.80;99.90;;;;;;5034071;28;20380;-48
2023/03/13 07:41:33;;;;;;;;;;;11.80;99.90;;;;;;5033682;28;20006;-47
2023/03/13 07:44:00;;;;;;;;;;;11.90;99.90;;;;;;5068314;28;20260;-48
2023/03/13 07:46:27;;;;;;;;;;;11.90;99.90;;;;;;5091095;28;19982;-50
2023/03/13 07:48:54;;;;;;;;;;;11.90;99.90;;;;;;5073557;28;20010;-48
2023/03/13 07:51:22;;;;;;;;;;;11.90;99.90;;;;;;5083693;28;20735;-50
2023/03/13 07:53:49;;;;;;;;;;;12.00;99.90;;;;;;5091531;28;19947;-51
2023/03/13 07:56:16;;;;;;;;;;;11.90;99.90;;;;;;5073669;28;19949;-48
2023/03/13 07:58:43;;;;;;;;;;;11.90;99.90;;;;;;5072207;28;19983;-47
2023/03/13 08:01:09;;;;;;;;;;;12.00;99.90;;;;;;5043638;28;20421;-51
2023/03/13 08:03:36;;;;;;;;;;;12.00;99.90;;;;;;5051035;28;19944;-50
2023/03/13 08:06:03;;;;;;;;;;;12.00;99.90;;;;;;5033556;28;19940;-50
2023/03/13 08:08:31;;;;;;;;;;;12.00;99.90;;;;;;5051906;28;20001;-44
2023/03/13 08:11:01;;;;;;;;;;;11.90;99.90;;;;;;5070031;28;19977;-49
2023/03/13 08:13:28;;;;;;;;;;;11.90;99.90;;;;;;5070222;28;19985;-54
2023/03/13 08:16:01;;;;;;;;;;;11.90;99.90;;;;;;5039993;28;19951;-51
2023/03/13 08:18:28;;;;;;;;;;;11.90;99.90;;;;;;5048141;28;19978;-54
2023/03/13 08:20:54;;;;;;;;;;;11.80;99.90;;;;;;5052899;28;19944;-48
2023/03/13 08:23:21;;;;;;;;;;;11.80;99.90;;;;;;5054030;28;20457;-51
2023/03/13 08:25:49;;;;;;;;;;;11.80;99.90;;;;;;5055841;28;19989;-46
2023/03/13 08:28:15;;;;;;;;;;;11.80;99.90;;;;;;5066324;28;19966;-49
2023/03/13 08:30:42;;;;;;;;;;;11.80;99.90;;;;;;5074521;28;19980;-47
2023/03/13 08:33:09;;;;;;;;;;;11.90;99.90;;;;;;5074526;28;20306;-50
2023/03/13 08:35:36;;;;;;;;;;;11.90;99.90;;;;;;5074737;28;19944;-50
2023/03/13 08:38:03;;;;;;;;;;;11.90;99.90;;;;;;5075002;28;20029;-54
2023/03/13 08:40:29;;;;;;;;;;;11.90;99.90;;;;;;5073519;28;19979;-47
2023/03/13 08:42:57;;;;;;;;;;;11.80;99.90;;;;;;5074499;28;19951;-50
2023/03/13 08:45:24;;;;;;;;;;;11.90;99.90;;;;;;5069711;28;19989;-49
2023/03/13 08:47:52;;;;;;;;;;;11.90;99.90;;;;;;5094848;28;19944;-51
2023/03/13 08:50:18;;;;;;;;;;;11.90;99.90;;;;;;5094496;28;19963;-46
2023/03/13 08:52:45;;;;;;;;;;;11.90;99.90;;;;;;5076806;28;19948;-50
2023/03/13 08:55:11;;;;;;;;;;;12.00;99.90;;;;;;5077081;28;19953;-50
2023/03/13 08:57:38;;;;;;;;;;;12.00;99.90;;;;;;5074246;28;19973;-48
2023/03/13 09:00:07;;;;;;;;;;;12.10;99.90;;;;;;5073287;28;19995;-44
2023/03/13 09:02:34;;;;;;;;;;;12.20;99.90;;;;;;5073223;28;19944;-48
2023/03/13 09:05:00;;;;;;;;;;;12.30;99.90;;;;;;5073261;28;20355;-48
2023/03/13 09:07:27;;;;;;;;;;;12.30;99.90;;;;;;5073155;28;19952;-44
2023/03/13 09:09:54;;;;;;;;;;;12.40;99.90;;;;;;5073742;28;20460;-49
2023/03/13 09:12:21;;;;;;;;;;;12.50;99.90;;;;;;5073741;28;19971;-44
2023/03/13 09:14:47;;;;;;;;;;;12.50;99.90;;;;;;5073749;28;19948;-49
2023/03/13 09:17:15;;;;;;;;;;;12.50;99.90;;;;;;5056517;28;19983;-48
2023/03/13 09:19:42;;;;;;;;;;;12.50;99.90;;;;;;5073591;28;20007;-44
2023/03/13 09:22:09;;;;;;;;;;;12.50;99.90;;;;;;5055781;28;19948;-47
2023/03/13 09:24:36;;;;;;;;;;;12.50;99.90;;;;;;5073582;28;19950;-50
2023/03/13 09:27:02;;;;;;;;;;;12.50;99.90;;;;;;5073345;28;19966;-48
2023/03/13 09:29:29;;;;;;;;;;;12.50;99.90;;;;;;5072686;28;19951;-47
2023/03/13 09:31:56;;;;;;;;;;;12.50;99.90;;;;;;5072095;28;19956;-47
2023/03/13 09:34:24;;;;;;;;;;;12.50;99.90;;;;;;5072305;28;19946;-49
2023/03/13 09:36:50;;;;;;;;;;;12.50;99.90;;;;;;5073099;28;20404;-48
2023/03/13 09:39:17;;;;;;;;;;;12.50;99.90;;;;;;5073333;28;20023;-47
2023/03/13 09:41:46;;;;;;;;;;;12.50;99.90;;;;;;5051671;28;19983;-49
2023/03/13 09:44:14;;;;;;;;;;;12.50;99.90;;;;;;5053070;28;19950;-48
2023/03/13 09:46:42;;;;;;;;;;;12.40;99.90;;;;;;5077001;28;19942;-44
2023/03/13 09:49:10;;;;;;;;;;;12.40;99.90;;;;;;5093476;28;20037;-48
2023/03/13 09:51:41;;;;;;;;;;;12.50;99.90;;;;;;5093659;28;19995;-50
2023/03/13 09:54:08;;;;;;;;;;;12.50;99.90;;;;;;5093587;28;19951;-50
2023/03/13 09:56:37;;;;;;;;;;;12.50;99.90;;;;;;5080713;28;20274;-48
2023/03/13 09:59:05;;;;;;;;;;;12.50;99.90;;;;;;5072924;28;20001;-44
2023/03/13 10:01:32;;;;;;;;;;;12.50;99.90;;;;;;5055423;28;19988;-48
2023/03/13 10:04:00;;;;;;;;;;;12.50;99.90;;;;;;5054982;28;19995;-50
2023/03/13 10:06:27;;;;;;;;;;;12.60;99.90;;;;;;5055472;28;20480;-44
2023/03/13 10:09:00;;;;;;;;;;;12.60;99.90;;;;;;5071951;28;20004;-50
2023/03/13 10:11:27;;;;;;;;;;;12.70;99.90;;;;;;5054706;28;19949;-48
2023/03/13 10:13:55;;;;;;;;;;;12.80;99.90;;;;;;5074978;28;20000;-47
2023/03/13 10:16:23;;;;;;;;;;;12.90;99.90;;;;;;5093196;28;20373;-48
2023/03/13 10:18:52;;;;;;;;;;;13.00;99.90;;;;;;5092840;28;19991;-45
2023/03/13 10:21:19;;;;;;;;;;;13.00;99.90;;;;;;5093228;28;19953;-46
2023/03/13 10:23:46;;;;;;;;;;;13.00;99.90;;;;;;5075064;28;20348;-51
2023/03/13 10:26:16;;;;;;;;;;;13.00;99.90;;;;;;5092494;28;19994;-50
2023/03/13 10:28:43;;;;;;;;;;;13.00;99.90;;;;;;5048592;28;20362;-43
2023/03/13 10:31:11;;;;;;;;;;;13.10;99.90;;;;;;5034747;28;19944;-49
2023/03/13 10:33:38;;;;;;;;;;;13.00;99.90;;;;;;5035016;28;19997;-47
2023/03/13 10:36:06;;;;;;;;;;;13.10;99.90;;;;;;5062556;28;19947;-43
2023/03/13 10:38:33;;;;;;;;;;;13.10;99.90;;;;;;5071812;28;19957;-41
2023/03/13 10:41:00;;;;;;;;;;;13.10;99.90;;;;;;5053909;28;19949;-43
2023/03/13 10:43:28;;;;;;;;;;;13.20;99.90;;;;;;5054519;28;20358;-48
2023/03/13 10:45:55;;;;;;;;;;;13.20;99.90;;;;;;5071539;28;20310;-48
2023/03/13 10:48:22;;;;;;;;;;;13.30;99.90;;;;;;5053649;28;19941;-49
2023/03/13 10:50:49;;;;;;;;;;;13.40;99.90;;;;;;5049435;28;20030;-47
2023/03/13 10:53:23;;;;;;;;;;;13.40;99.90;;;;;;5054453;28;19986;-43
2023/03/13 10:55:51;;;;;;;;;;;13.50;99.90;;;;;;5071674;28;19939;-47
2023/03/13 10:58:19;;;;;;;;;;;13.70;99.90;;;;;;5070782;28;19994;-43
2023/03/13 11:00:47;;;;;;;;;;;13.70;99.90;;;;;;5071308;28;20358;-47
2023/03/13 11:03:15;;;;;;;;;;;13.70;99.90;;;;;;5071995;28;20366;-49
2023/03/13 11:05:42;;;;;;;;;;;13.80;99.90;;;;;;5071631;28;19957;-48
2023/03/13 11:08:13;;;;;;;;;;;13.80;99.90;;;;;;5071526;28;19949;-44
2023/03/13 11:10:41;;;;;;;;;;;13.90;99.90;;;;;;5069555;28;19960;-44
2023/03/13 11:13:10;;;;;;;;;;;14.00;99.90;;;;;;5071138;28;19949;-45
2023/03/13 11:15:39;;;;;;;;;;;14.00;99.90;;;;;;5070993;28;19948;-48
2023/03/13 11:18:08;;;;;;;;;;;14.00;99.90;;;;;;5053429;28;20049;-44
2023/03/13 11:20:35;;;;;;;;;;;14.00;99.90;;;;;;5071026;28;19964;-45
2023/03/13 11:23:06;;;;;;;;;;;14.10;99.90;;;;;;5071032;28;20017;-46
2023/03/13 11:25:35;;;;;;;;;;;14.00;99.90;;;;;;5070822;28;20338;-44
2023/03/13 11:28:05;;;;;;;;;;;14.10;99.90;;;;;;5071270;28;19953;-46
2023/03/13 11:30:41;;;;;;;;;;;14.30;99.90;;;;;;5056402;28;20012;-43
2023/03/13 11:33:15;;;;;;;;;;;14.40;99.90;;;;;;5051113;28;20406;-42
2023/03/13 11:35:43;;;;;;;;;;;14.40;99.90;;;;;;5051214;28;19948;-48
2023/03/13 11:38:12;;;;;;;;;;;14.50;99.90;;;;;;5051376;28;19952;-48
2023/03/13 11:40:41;;;;;;;;;;;14.40;99.90;;;;;;5055095;28;19945;-42
2023/03/13 11:43:10;;;;;;;;;;;14.50;99.90;;;;;;5052512;28;19983;-44
2023/03/13 11:45:54;;;;;;;;;;;14.50;99.90;;;;;;5033394;28;20442;-46
2023/03/13 11:48:25;;;;;;;;;;;14.50;99.90;;;;;;5033164;28;19945;-45
2023/03/13 11:50:52;;;;;;;;;;;14.50;99.90;;;;;;5064763;28;19966;-43
2023/03/13 11:53:31;;;;;;;;;;;14.60;99.90;;;;;;5053953;28;19940;-45
2023/03/13 11:56:02;;;;;;;;;;;14.60;99.90;;;;;;5072915;28;19945;-43
2023/03/13 11:58:32;;;;;;;;;;;14.80;99.90;;;;;;5078523;28;19990;-45
2023/03/13 12:00:59;;;;;;;;;;;14.90;99.90;;;;;;5068526;28;20034;-44
2023/03/13 12:03:30;;;;;;;;;;;15.00;99.90;;;;;;5074797;28;19946;-48
2023/03/13 12:05:57;;;;;;;;;;;15.00;99.90;;;;;;5071982;28;20403;-49
2023/03/13 12:08:25;;;;;;;;;;;15.00;99.90;;;;;;5085816;28;19946;-46
2023/03/13 12:10:52;;;;;;;;;;;15.10;99.90;;;;;;5071304;28;19999;-41
2023/03/13 12:13:19;;;;;;;;;;;15.00;99.90;;;;;;5087399;28;19998;-44
2023/03/13 12:15:46;;;;;;;;;;;15.10;99.90;;;;;;5089521;28;19990;-46
2023/03/13 12:18:15;;;;;;;;;;;15.10;99.90;;;;;;5092331;28;20014;-44
2023/03/13 12:20:44;;;;;;;;;;;15.10;99.90;;;;;;5072151;28;19962;-44
2023/03/13 12:23:17;;;;;;;;;;;15.10;99.90;;;;;;5073343;28;19940;-47
2023/03/13 12:25:44;;;;;;;;;;;15.20;99.90;;;;;;5088230;28;19944;-42
2023/03/13 12:28:23;;;;;;;;;;;15.30;99.90;;;;;;5063911;28;19952;-49
2023/03/13 12:30:51;;;;;;;;;;;15.30;99.90;;;;;;5053873;28;20063;-41
2023/03/13 12:33:19;;;;;;;;;;;15.40;99.90;;;;;;5059636;28;19947;-45
2023/03/13 12:35:49;;;;;;;;;;;15.40;99.90;;;;;;5059980;28;19948;-48
2023/03/13 12:38:17;;;;;;;;;;;15.40;99.90;;;;;;5071179;28;20024;-43
2023/03/13 12:40:45;;;;;;;;;;;15.40;99.90;;;;;;5071916;28;20357;-45
2023/03/13 12:43:12;;;;;;;;;;;15.30;99.90;;;;;;5054424;28;19971;-47
2023/03/13 12:45:45;;;;;;;;;;;15.20;99.90;;;;;;5054276;28;19950;-44
2023/03/13 12:48:19;;;;;;;;;;;15.10;99.90;;;;;;5053598;28;20027;-45
2023/03/13 12:50:51;;;;;;;;;;;15.10;99.90;;;;;;5071693;28;19974;-46
2023/03/13 12:53:25;;;;;;;;;;;15.10;99.90;;;;;;5054255;28;19945;-45
2023/03/13 12:56:12;;;;;;;;;;;15.10;99.90;;;;;;5054210;28;20485;-44
2023/03/13 12:58:47;;;;;;;;;;;15.10;99.90;;;;;;5053810;28;19949;-45
2023/03/13 13:01:15;;;;;;;;;;;15.20;99.90;;;;;;5071654;28;19948;-47
2023/03/13 13:03:45;;;;;;;;;;;15.10;99.90;;;;;;5071409;28;20001;-45
2023/03/13 13:06:13;;;;;;;;;;;15.20;99.90;;;;;;5041903;28;20002;-45
2023/03/13 13:08:41;;;;;;;;;;;15.30;99.90;;;;;;5071186;28;19940;-44
2023/03/13 13:11:26;;;;;;;;;;;15.40;99.90;;;;;;5057290;28;19964;-43
2023/03/13 13:13:53;;;;;;;;;;;15.50;99.90;;;;;;5080718;28;20437;-45
2023/03/13 13:16:20;;;;;;;;;;;15.60;99.90;;;;;;5055188;28;19955;-43
2023/03/13 13:18:46;;;;;;;;;;;15.70;99.90;;;;;;5060200;28;19952;-44
2023/03/13 13:21:22;;;;;;;;;;;15.70;99.90;;;;;;5084620;28;19945;-46
2023/03/13 13:23:52;;;;;;;;;;;15.60;99.90;;;;;;5063096;28;20384;-46
2023/03/13 13:26:46;;;;;;;;;;;15.60;99.90;;;;;;5093805;28;19943;-45
2023/03/13 13:29:28;;;;;;;;;;;15.70;99.90;;;;;;5077295;28;20029;-44
2023/03/13 13:31:55;;;;;;;;;;;15.80;99.90;;;;;;5094093;28;20026;-42
2023/03/13 13:34:41;;;;;;;;;;;16.00;99.90;;;;;;5090292;28;19948;-44
2023/03/13 13:37:22;;;;;;;;;;;16.00;99.90;;;;;;5092028;28;20000;-42
2023/03/13 13:39:51;;;;;;;;;;;16.00;99.90;;;;;;5057062;28;19947;-45
2023/03/13 13:42:44;;;;;;;;;;;16.00;99.90;;;;;;5074817;28;19947;-44
2023/03/13 13:45:20;;;;;;;;;;;16.00;99.90;;;;;;5030517;28;19946;-46
2023/03/13 13:47:47;;;;;;;;;;;16.00;99.90;;;;;;5056935;28;19946;-47
2023/03/13 13:50:16;;;;;;;;;;;15.90;99.90;;;;;;5056697;28;19974;-42
2023/03/13 13:52:43;;;;;;;;;;;15.70;99.90;;;;;;5086115;28;19945;-39
2023/03/13 13:55:33;;;;;;;;;;;15.70;99.90;;;;;;5082896;28;19949;-44
2023/03/13 13:58:00;;;;;;;;;;;15.70;99.90;;;;;;5087340;28;19981;-44
2023/03/13 14:00:27;;;;;;;;;;;15.70;99.90;;;;;;5087171;28;20417;-47
2023/03/13 14:02:54;;;;;;;;;;;15.70;99.90;;;;;;5055693;28;19956;-48
2023/03/13 14:05:21;;;;;;;;;;;15.70;99.90;;;;;;5091959;28;20010;-44
2023/03/13 14:07:48;;;;;;;;;;;15.80;99.90;;;;;;5062862;28;19948;-46
2023/03/13 14:10:17;;;;;;;;;;;15.90;99.90;;;;;;5073217;28;20185;-48
2023/03/13 14:12:46;;;;;;;;;;;15.90;99.90;;;;;;5055137;28;19993;-44
2023/03/13 14:15:14;;;;;;;;;;;15.80;99.90;;;;;;5071092;28;20001;-41
2023/03/13 14:17:41;;;;;;;;;;;15.80;99.90;;;;;;5071247;28;19949;-42
2023/03/13 14:20:25;;;;;;;;;;;15.60;99.90;;;;;;5073458;28;20022;-45
2023/03/13 14:22:53;;;;;;;;;;;15.60;99.90;;;;;;5073897;28;19944;-44
2023/03/13 14:25:19;;;;;;;;;;;15.60;99.90;;;;;;5070731;28;19968;-44